Time;durP1;ratioP1;P1;durP2;ratioP2;P2;SDS_P1;SDS_P2;PMS_P1;PMS_P2;Temp;Humidity;BMP_temperature;BMP_pressure;BME280_temperature;BME280_humidity;BME280_pressure;Samples;Min_cycle;Max_cycle;Signal;HPM_P1;HPM_P2
2023/05/27 00:02:16;;;;;;;9.52;2.83;;;11.20;99.90;;;;;;5092389;28;20031;-53
2023/05/27 00:04:42;;;;;;;7.30;2.40;;;11.20;99.90;;;;;;5091914;28;20494;-41
2023/05/27 00:07:08;;;;;;;13.18;2.03;;;11.20;99.90;;;;;;5092050;28;20027;-44
2023/05/27 00:09:33;;;;;;;9.60;1.77;;;11.20;99.90;;;;;;5092367;28;20024;-41
2023/05/27 00:11:59;;;;;;;15.32;3.80;;;11.20;99.90;;;;;;5092332;28;20383;-51
2023/05/27 00:14:25;;;;;;;19.52;3.60;;;11.20;99.90;;;;;;5092098;28;20020;-45
2023/05/27 00:16:51;;;;;;;12.48;3.17;;;11.10;99.90;;;;;;5091833;28;20471;-42
2023/05/27 00:19:17;;;;;;;16.58;3.22;;;11.10;99.90;;;;;;5092340;28;20024;-43
2023/05/27 00:21:43;;;;;;;22.02;4.30;;;11.10;99.90;;;;;;5091742;28;20487;-46
2023/05/27 00:24:10;;;;;;;23.20;4.07;;;11.10;99.90;;;;;;5092050;28;20031;-49
2023/05/27 00:26:35;;;;;;;14.00;3.60;;;11.10;99.90;;;;;;5091895;28;20024;-46
2023/05/27 00:29:01;;;;;;;17.13;3.85;;;11.10;99.90;;;;;;5091753;28;20078;-50
2023/05/27 00:31:27;;;;;;;27.75;5.07;;;11.10;99.90;;;;;;5091902;28;20024;-52
2023/05/27 00:33:52;;;;;;;23.30;4.43;;;11.10;99.90;;;;;;5091878;28;20073;-52
2023/05/27 00:36:18;;;;;;;20.55;4.57;;;11.10;99.90;;;;;;5091745;28;20450;-45
2023/05/27 00:38:44;;;;;;;21.10;4.25;;;11.10;99.90;;;;;;5091894;28;20040;-46
2023/05/27 00:41:12;;;;;;;21.10;4.07;;;11.10;99.90;;;;;;5091514;28;20099;-47
2023/05/27 00:43:38;;;;;;;20.80;5.25;;;11.10;99.90;;;;;;5091539;28;20044;-49
2023/05/27 00:46:04;;;;;;;23.42;5.00;;;11.00;99.90;;;;;;5087685;28;20028;-53
2023/05/27 00:48:30;;;;;;;22.58;5.03;;;11.00;99.90;;;;;;5081317;28;20035;-53
2023/05/27 00:50:56;;;;;;;18.77;4.18;;;11.00;99.90;;;;;;5091499;28;20020;-57
2023/05/27 00:53:23;;;;;;;31.05;4.60;;;11.00;99.90;;;;;;5091453;28;20081;-54
2023/05/27 00:55:51;;;;;;;21.08;4.85;;;10.90;99.90;;;;;;5091447;28;20453;-49
2023/05/27 00:58:20;;;;;;;23.80;4.93;;;11.00;99.90;;;;;;5090036;28;20398;-49
2023/05/27 01:00:46;;;;;;;25.27;5.15;;;10.90;99.90;;;;;;5091676;28;20024;-43
2023/05/27 01:03:12;;;;;;;16.02;3.95;;;10.90;99.90;;;;;;5091449;28;20093;-51
2023/05/27 01:05:38;;;;;;;16.20;4.10;;;10.90;99.90;;;;;;5091417;28;20039;-51
2023/05/27 01:08:17;;;;;;;20.48;3.95;;;10.90;99.90;;;;;;5091228;28;20110;-52
2023/05/27 01:10:50;;;;;;;22.77;4.77;;;10.90;99.90;;;;;;5091151;28;20015;-50
2023/05/27 01:13:31;;;;;;;27.05;4.20;;;10.90;99.90;;;;;;5091291;28;20016;-54
2023/05/27 01:16:00;;;;;;;21.65;5.20;;;10.90;99.90;;;;;;5091030;28;20032;-46
2023/05/27 01:18:29;;;;;;;17.95;3.92;;;10.90;99.90;;;;;;5090949;28;20012;-56
2023/05/27 01:21:02;;;;;;;14.18;3.67;;;10.90;99.90;;;;;;5091147;28;20032;-57
2023/05/27 01:23:28;;;;;;;16.63;5.07;;;10.90;99.90;;;;;;5090671;28;20074;-46
2023/05/27 01:25:54;;;;;;;13.90;3.60;;;10.90;99.90;;;;;;5090906;28;20024;-48
2023/05/27 01:28:20;;;;;;;21.25;4.38;;;10.80;99.90;;;;;;5090797;28;20065;-58
2023/05/27 01:30:46;;;;;;;21.48;3.85;;;10.80;99.90;;;;;;5091006;28;20128;-44
2023/05/27 01:33:20;;;;;;;21.83;4.30;;;10.80;99.90;;;;;;5090933;28;20471;-52
2023/05/27 01:35:54;;;;;;;15.73;3.80;;;10.80;99.90;;;;;;5090719;28;20309;-57
2023/05/27 01:38:21;;;;;;;24.73;4.63;;;10.80;99.90;;;;;;5091069;28;20031;-45
2023/05/27 01:40:48;;;;;;;19.92;4.03;;;10.80;99.90;;;;;;5090674;28;20012;-52
2023/05/27 01:43:15;;;;;;;18.33;5.40;;;10.80;99.90;;;;;;5090559;28;20491;-42
2023/05/27 01:45:42;;;;;;;23.00;4.75;;;10.80;99.90;;;;;;5090557;28;20028;-44
2023/05/27 01:48:09;;;;;;;18.80;4.28;;;10.80;99.90;;;;;;5090705;28;20032;-42
2023/05/27 01:50:35;;;;;;;21.35;4.15;;;10.80;99.90;;;;;;5077673;28;20035;-53
2023/05/27 01:53:03;;;;;;;21.10;4.55;;;10.70;99.90;;;;;;5089746;28;20101;-50
2023/05/27 01:55:29;;;;;;;16.00;4.47;;;10.70;99.90;;;;;;5079600;28;20028;-48
2023/05/27 01:57:54;;;;;;;24.65;5.05;;;10.70;99.90;;;;;;5087958;28;20096;-57
2023/05/27 02:00:20;;;;;;;18.67;3.72;;;10.70;99.90;;;;;;5090769;28;20016;-54
2023/05/27 02:02:45;;;;;;;15.55;3.58;;;10.70;99.90;;;;;;5090437;28;20044;-55
2023/05/27 02:05:11;;;;;;;17.35;3.67;;;10.70;99.90;;;;;;5090602;28;20027;-42
2023/05/27 02:07:37;;;;;;;13.48;3.40;;;10.70;99.90;;;;;;5090566;28;20077;-44
2023/05/27 02:10:02;;;;;;;14.85;3.00;;;10.70;99.90;;;;;;5090535;28;20073;-50
2023/05/27 02:12:28;;;;;;;10.98;2.97;;;10.70;99.90;;;;;;5090641;28;20020;-54
2023/05/27 02:14:53;;;;;;;15.75;3.40;;;10.70;99.90;;;;;;5090462;28;20016;-53
2023/05/27 02:17:19;;;;;;;14.48;2.95;;;10.70;99.90;;;;;;5090480;28;20031;-42
2023/05/27 02:19:45;;;;;;;15.50;3.80;;;10.60;99.90;;;;;;5090447;28;20414;-56
2023/05/27 02:22:10;;;;;;;12.43;3.17;;;10.70;99.90;;;;;;5090533;28;20107;-45
2023/05/27 02:24:36;;;;;;;10.90;3.25;;;10.60;99.90;;;;;;5090461;28;20024;-51
2023/05/27 02:27:02;;;;;;;10.65;3.80;;;10.60;99.90;;;;;;5090437;28;20020;-52
2023/05/27 02:29:28;;;;;;;8.30;2.83;;;10.60;99.90;;;;;;5092848;28;20016;-50
2023/05/27 02:31:53;;;;;;;14.63;3.63;;;10.60;99.90;;;;;;5079218;28;20092;-59
2023/05/27 02:34:19;;;;;;;11.15;3.85;;;10.60;99.90;;;;;;5073623;28;20029;-52
2023/05/27 02:36:44;;;;;;;6.47;2.75;;;10.60;99.90;;;;;;5073826;28;20016;-43
2023/05/27 02:39:10;;;;;;;8.15;2.15;;;10.60;99.90;;;;;;5073586;28;20468;-45
2023/05/27 02:41:36;;;;;;;4.80;2.53;;;10.60;99.90;;;;;;5073434;28;20033;-43
2023/05/27 02:44:02;;;;;;;4.20;1.05;;;10.60;99.90;;;;;;5073539;28;20028;-42
2023/05/27 02:46:28;;;;;;;5.25;1.83;;;10.60;99.90;;;;;;5073544;28;20028;-42
2023/05/27 02:48:54;;;;;;;4.35;1.55;;;10.60;99.90;;;;;;5073507;28;20118;-44
2023/05/27 02:51:22;;;;;;;2.30;0.95;;;10.60;99.90;;;;;;5073647;28;20031;-51
2023/05/27 02:53:47;;;;;;;2.10;0.95;;;10.60;99.90;;;;;;5073293;28;20107;-46
2023/05/27 02:56:13;;;;;;;2.38;1.00;;;10.60;99.90;;;;;;5073538;28;20052;-56
2023/05/27 02:58:38;;;;;;;2.90;1.02;;;10.60;99.90;;;;;;5073227;28;20438;-52
2023/05/27 03:01:04;;;;;;;2.13;1.38;;;10.60;99.90;;;;;;5073405;28;20028;-45
2023/05/27 03:03:30;;;;;;;1.08;0.70;;;10.60;99.90;;;;;;5073062;28;20144;-44
2023/05/27 03:05:56;;;;;;;1.95;0.75;;;10.60;99.90;;;;;;5073182;28;20032;-43
2023/05/27 03:08:21;;;;;;;0.60;0.57;;;10.60;99.90;;;;;;5073340;28;20089;-53
2023/05/27 03:10:47;;;;;;;1.25;0.60;;;10.60;99.90;;;;;;5072890;28;20020;-52
2023/05/27 03:13:13;;;;;;;0.60;0.60;;;10.60;99.90;;;;;;5073025;28;20032;-51
2023/05/27 03:15:39;;;;;;;0.90;0.50;;;10.60;99.90;;;;;;5072602;28;20032;-47
2023/05/27 03:18:05;;;;;;;1.08;0.57;;;10.60;99.90;;;;;;5072902;28;20040;-49
2023/05/27 03:20:30;;;;;;;0.52;0.52;;;10.50;99.90;;;;;;5073044;28;20028;-47
2023/05/27 03:22:56;;;;;;;0.28;0.28;;;10.60;99.90;;;;;;5072659;28;20027;-49
2023/05/27 03:25:22;;;;;;;1.27;0.50;;;10.50;99.90;;;;;;5072784;28;20096;-58
2023/05/27 03:27:47;;;;;;;1.65;0.63;;;10.50;99.90;;;;;;5072622;28;20021;-58
2023/05/27 03:30:13;;;;;;;1.17;0.43;;;10.50;99.90;;;;;;5072727;28;20027;-54
2023/05/27 03:32:39;;;;;;;0.20;0.20;;;10.50;99.90;;;;;;5072490;28;20116;-55
2023/05/27 03:35:05;;;;;;;0.50;0.25;;;10.50;99.90;;;;;;5072938;28;20017;-51
2023/05/27 03:37:31;;;;;;;0.20;0.20;;;10.50;99.90;;;;;;5072490;28;20033;-52
2023/05/27 03:39:57;;;;;;;0.70;0.55;;;10.40;99.90;;;;;;5070928;28;20078;-53
2023/05/27 03:42:22;;;;;;;0.40;0.40;;;10.50;99.90;;;;;;5072247;28;20044;-56
2023/05/27 03:44:48;;;;;;;0.40;0.20;;;10.40;99.90;;;;;;5072182;28;20101;-51
2023/05/27 03:47:17;;;;;;;0.40;0.40;;;10.40;99.90;;;;;;5072361;28;20033;-54
2023/05/27 03:49:43;;;;;;;0.10;0.10;;;10.40;99.90;;;;;;5072004;28;20357;-49
2023/05/27 03:52:08;;;;;;;0.30;0.30;;;10.40;99.90;;;;;;5072142;28;20074;-55
2023/05/27 03:54:34;;;;;;;0.10;0.10;;;10.40;99.90;;;;;;5072101;28;20024;-58
2023/05/27 03:57:01;;;;;;;0.20;0.20;;;10.40;99.90;;;;;;5072051;28;20391;-48
2023/05/27 03:59:26;;;;;;;0.17;0.17;;;10.40;99.90;;;;;;5072129;28;20471;-48
2023/05/27 04:01:52;;;;;;;0.30;0.30;;;10.40;99.90;;;;;;5071864;28;20036;-59
2023/05/27 04:04:18;;;;;;;0.32;0.20;;;10.40;99.90;;;;;;5072147;28;20035;-55
2023/05/27 04:06:44;;;;;;;0.10;0.10;;;10.50;99.90;;;;;;5072065;28;20035;-58
2023/05/27 04:09:09;;;;;;;0.10;0.10;;;10.50;99.90;;;;;;5072038;28;20027;-60
2023/05/27 04:11:35;;;;;;;0.20;0.20;;;10.50;99.90;;;;;;5071816;28;20050;-54
2023/05/27 04:14:00;;;;;;;0.10;0.10;;;10.50;99.90;;;;;;5072028;28;20103;-53
2023/05/27 04:16:26;;;;;;;0.10;0.10;;;10.50;99.90;;;;;;5071871;28;20060;-45
2023/05/27 04:18:52;;;;;;;0.10;0.10;;;10.50;99.90;;;;;;5071667;28;20024;-45
2023/05/27 04:21:18;;;;;;;0.10;0.10;;;10.50;99.90;;;;;;5071824;28;20031;-46
2023/05/27 04:23:44;;;;;;;0.10;0.10;;;10.50;99.90;;;;;;5071525;28;20043;-59
2023/05/27 04:26:10;;;;;;;0.10;0.10;;;10.60;99.90;;;;;;5071759;28;20084;-51
2023/05/27 04:28:36;;;;;;;0.10;0.10;;;10.60;99.90;;;;;;5071484;28;20033;-53
2023/05/27 04:31:02;;;;;;;0.20;0.20;;;10.60;99.90;;;;;;5071514;28;20048;-56
2023/05/27 04:33:27;;;;;;;0.10;0.10;;;10.70;99.90;;;;;;5071348;28;20415;-51
2023/05/27 04:35:53;;;;;;;0.10;0.10;;;10.70;99.90;;;;;;5071341;28;20071;-53
2023/05/27 04:38:22;;;;;;;0.10;0.10;;;10.70;99.90;;;;;;5073700;28;20021;-47
2023/05/27 04:40:52;;;;;;;0.10;0.10;;;10.80;99.90;;;;;;5078264;28;20025;-52
2023/05/27 04:43:18;;;;;;;;;;;10.80;99.90;;;;;;5071064;28;20407;-51
2023/05/27 04:45:44;;;;;;;0.10;0.10;;;10.80;99.90;;;;;;5085610;28;19941;-44
2023/05/27 04:48:10;;;;;;;0.10;0.10;;;10.90;99.90;;;;;;5091380;28;20443;-43
2023/05/27 04:50:36;;;;;;;0.10;0.10;;;10.90;99.90;;;;;;5091048;28;20023;-54
2023/05/27 04:53:02;;;;;;;0.10;0.10;;;10.90;99.90;;;;;;5090749;28;20111;-54
2023/05/27 04:55:29;;;;;;;0.10;0.10;;;11.00;99.90;;;;;;5091162;28;20089;-55
2023/05/27 04:57:56;;;;;;;0.10;0.10;;;11.00;99.90;;;;;;5091294;28;20036;-50
2023/05/27 05:00:49;;;;;;;0.10;0.10;;;11.10;99.90;;;;;;5091186;28;20486;-48
2023/05/27 05:03:20;;;;;;;0.10;0.10;;;11.10;99.90;;;;;;5091157;28;20169;-50
2023/05/27 05:05:54;;;;;;;0.10;0.10;;;11.30;99.90;;;;;;5091195;28;20027;-42
2023/05/27 05:08:20;;;;;;;0.20;0.20;;;11.30;99.90;;;;;;5091240;28;20080;-45
2023/05/27 05:10:47;;;;;;;0.10;0.10;;;11.40;99.90;;;;;;5091362;28;20027;-44
2023/05/27 05:13:13;;;;;;;0.10;0.10;;;11.50;99.90;;;;;;5091386;28;20071;-44
2023/05/27 05:15:40;;;;;;;0.10;0.10;;;11.50;99.90;;;;;;5091095;28;20430;-47
2023/05/27 05:18:05;;;;;;;0.10;0.10;;;11.60;99.90;;;;;;5091194;28;20031;-52
2023/05/27 05:20:31;;;;;;;0.10;0.10;;;11.70;99.90;;;;;;5091055;28;20028;-48
2023/05/27 05:22:58;;;;;;;0.47;0.40;;;11.80;99.90;;;;;;5090654;28;20035;-50
2023/05/27 05:25:23;;;;;;;0.20;0.20;;;12.00;99.90;;;;;;5090973;28;20031;-50
2023/05/27 05:27:49;;;;;;;0.10;0.10;;;12.10;99.90;;;;;;5090851;28;20024;-50
2023/05/27 05:30:15;;;;;;;0.10;0.10;;;12.20;99.90;;;;;;5090956;28;20043;-49
2023/05/27 05:32:40;;;;;;;0.10;0.10;;;12.30;99.90;;;;;;5090693;28;20494;-51
2023/05/27 05:35:06;;;;;;;0.20;0.20;;;12.50;99.90;;;;;;5090753;28;20023;-42
2023/05/27 05:37:32;;;;;;;0.10;0.10;;;12.70;99.90;;;;;;5090793;28;20020;-55
2023/05/27 05:39:57;;;;;;;1.75;0.32;;;12.90;99.90;;;;;;5084635;28;20078;-45
2023/05/27 05:42:24;;;;;;;0.10;0.10;;;13.10;99.90;;;;;;5070482;28;20127;-46
2023/05/27 05:44:52;;;;;;;0.10;0.10;;;13.30;99.90;;;;;;5070543;28;20013;-60
2023/05/27 05:47:17;;;;;;;0.10;0.10;;;13.60;99.90;;;;;;5070630;28;20052;-49
2023/05/27 05:49:43;;;;;;;1.75;0.50;;;13.90;99.90;;;;;;5070479;28;20468;-50
2023/05/27 05:52:09;;;;;;;0.10;0.10;;;14.20;99.90;;;;;;5070479;28;20025;-48
2023/05/27 05:54:34;;;;;;;0.10;0.10;;;14.60;99.90;;;;;;5070359;28;20024;-42
2023/05/27 05:57:00;;;;;;;0.10;0.10;;;15.20;99.90;;;;;;5068806;28;20115;-48
2023/05/27 05:59:26;;;;;;;0.10;0.10;;;15.80;99.90;;;;;;5070396;28;20507;-48
2023/05/27 06:01:52;;;;;;;0.20;0.20;;;16.20;99.90;;;;;;5069906;28;20111;-49
2023/05/27 06:04:17;;;;;;;0.10;0.10;;;16.50;99.90;;;;;;5072474;28;20021;-53
2023/05/27 06:06:43;;;;;;;0.25;0.20;;;16.80;99.90;;;;;;5074237;28;20035;-58
2023/05/27 06:09:09;;;;;;;0.10;0.10;;;17.00;99.90;;;;;;5074536;28;20027;-48
2023/05/27 06:11:34;;;;;;;0.32;0.20;;;17.30;99.90;;;;;;5074417;28;20055;-47
2023/05/27 06:14:00;;;;;;;0.13;0.13;;;17.60;99.90;;;;;;5073895;28;20025;-42
2023/05/27 06:16:26;;;;;;;0.10;0.10;;;18.00;99.90;;;;;;5074304;28;20092;-49
2023/05/27 06:18:51;;;;;;;0.10;0.10;;;18.50;99.90;;;;;;5074071;28;20024;-58
2023/05/27 06:21:17;;;;;;;0.22;0.13;;;18.70;99.90;;;;;;5074111;28;20471;-42
2023/05/27 06:23:43;;;;;;;0.10;0.10;;;18.70;99.90;;;;;;5073952;28;20075;-49
2023/05/27 06:26:09;;;;;;;0.10;0.10;;;18.90;99.90;;;;;;5073876;28;20017;-53
2023/05/27 06:28:34;;;;;;;0.20;0.20;;;19.00;99.90;;;;;;5073836;28;20036;-52
2023/05/27 06:31:00;;;;;;;0.40;0.20;;;19.20;99.90;;;;;;5073990;28;20036;-47
2023/05/27 06:33:25;;;;;;;0.55;0.20;;;19.20;99.90;;;;;;5073759;28;20102;-49
2023/05/27 06:35:51;;;;;;;0.10;0.10;;;19.40;99.90;;;;;;5073705;28;20017;-49
2023/05/27 06:38:17;;;;;;;0.20;0.20;;;19.50;99.90;;;;;;5073836;28;20024;-54
2023/05/27 06:40:42;;;;;;;0.10;0.10;;;19.90;99.90;;;;;;5074098;28;20425;-58
2023/05/27 06:43:08;;;;;;;0.10;0.10;;;20.20;99.90;;;;;;5073470;28;20047;-53
2023/05/27 06:45:33;;;;;;;0.00;0.00;;;20.50;99.90;;;;;;5073553;28;20115;-59
2023/05/27 06:47:59;;;;;;;0.10;0.10;;;20.70;99.90;;;;;;5073223;28;20035;-49
2023/05/27 06:50:25;;;;;;;0.10;0.10;;;21.20;99.90;;;;;;5073405;28;20067;-55
2023/05/27 06:52:51;;;;;;;1.30;0.30;;;21.50;98.30;;;;;;5073531;28;20036;-53
2023/05/27 06:55:18;;;;;;;0.10;0.10;;;21.50;97.30;;;;;;5073474;28;20062;-45
2023/05/27 06:57:43;;;;;;;0.10;0.10;;;21.80;96.10;;;;;;5072157;28;20533;-45
2023/05/27 07:00:09;;;;;;;0.10;0.10;;;21.90;94.90;;;;;;5073406;28;20056;-48
2023/05/27 07:02:35;;;;;;;0.10;0.10;;;22.10;94.10;;;;;;5072636;28;20488;-46
2023/05/27 07:05:00;;;;;;;0.10;0.10;;;22.20;92.40;;;;;;5072844;28;20071;-42
2023/05/27 07:07:26;;;;;;;0.20;0.10;;;22.40;92.40;;;;;;5073666;28;20031;-42
2023/05/27 07:09:53;;;;;;;0.10;0.10;;;22.70;92.40;;;;;;5072952;28;20020;-44
2023/05/27 07:12:19;;;;;;;0.20;0.20;;;22.10;90.40;;;;;;5073377;28;20052;-52
2023/05/27 07:14:45;;;;;;;0.20;0.20;;;22.50;90.70;;;;;;5072643;28;20029;-49
2023/05/27 07:17:11;;;;;;;0.20;0.20;;;23.00;90.30;;;;;;5072971;28;20028;-55
2023/05/27 07:19:37;;;;;;;0.15;0.13;;;23.10;90.90;;;;;;5072922;28;20059;-51
2023/05/27 07:22:03;;;;;;;0.10;0.10;;;23.00;84.50;;;;;;5073341;28;20028;-49
2023/05/27 07:24:29;;;;;;;0.20;0.20;;;22.70;84.30;;;;;;5073198;28;20392;-52
2023/05/27 07:26:55;;;;;;;0.10;0.10;;;22.20;83.10;;;;;;5072837;28;20024;-51
2023/05/27 07:29:20;;;;;;;0.13;0.13;;;22.40;86.40;;;;;;5065649;28;20028;-42
2023/05/27 07:31:46;;;;;;;0.10;0.10;;;23.00;86.20;;;;;;5070909;28;20451;-47
2023/05/27 07:34:12;;;;;;;0.28;0.22;;;23.20;86.60;;;;;;5070792;28;20537;-54
2023/05/27 07:36:38;;;;;;;0.20;0.20;;;23.60;84.40;;;;;;5071044;28;20048;-43
2023/05/27 07:39:03;;;;;;;0.20;0.20;;;23.50;85.50;;;;;;5069956;28;20077;-44
2023/05/27 07:41:29;;;;;;;0.15;0.13;;;23.90;84.60;;;;;;5071479;28;20033;-43
2023/05/27 07:43:56;;;;;;;0.10;0.10;;;24.40;83.10;;;;;;5072478;28;20036;-45
2023/05/27 07:46:21;;;;;;;0.28;0.10;;;24.80;82.30;;;;;;5072556;28;20024;-51
2023/05/27 07:48:47;;;;;;;0.68;0.13;;;25.20;82.10;;;;;;5072605;28;20029;-42
2023/05/27 07:51:12;;;;;;;0.10;0.10;;;25.00;73.50;;;;;;5072470;28;20353;-42
2023/05/27 07:53:38;;;;;;;0.10;0.10;;;24.30;73.40;;;;;;5071329;28;20071;-42
2023/05/27 07:56:04;;;;;;;0.10;0.10;;;24.10;75.30;;;;;;5072387;28;20028;-46
2023/05/27 07:58:30;;;;;;;0.10;0.10;;;24.30;74.10;;;;;;5072131;28;20466;-52
2023/05/27 08:00:55;;;;;;;0.43;0.28;;;24.60;77.50;;;;;;5072377;28;20039;-48
2023/05/27 08:03:21;;;;;;;0.32;0.10;;;25.10;76.00;;;;;;5072108;28;20079;-46
2023/05/27 08:05:47;;;;;;;0.13;0.10;;;25.70;75.40;;;;;;5072378;28;20028;-46
2023/05/27 08:08:13;;;;;;;0.10;0.10;;;25.70;70.90;;;;;;5072373;28;20102;-44
2023/05/27 08:10:39;;;;;;;0.32;0.32;;;25.50;70.00;;;;;;5072114;28;20099;-43
2023/05/27 08:13:05;;;;;;;0.40;0.40;;;24.70;69.10;;;;;;5071938;28;20152;-43
2023/05/27 08:15:30;;;;;;;0.10;0.10;;;24.80;69.90;;;;;;5071783;28;20089;-46
2023/05/27 08:17:56;;;;;;;0.10;0.10;;;24.30;73.00;;;;;;5071891;28;20029;-48
2023/05/27 08:20:22;;;;;;;0.13;0.13;;;24.70;71.40;;;;;;5071889;28;20379;-43
2023/05/27 08:22:47;;;;;;;0.10;0.10;;;25.20;70.40;;;;;;5071928;28;20098;-54
2023/05/27 08:25:13;;;;;;;0.20;0.20;;;25.20;68.30;;;;;;5071702;28;20028;-52
2023/05/27 08:27:53;;;;;;;0.10;0.10;;;25.50;68.40;;;;;;5069770;28;20039;-47
2023/05/27 08:30:19;;;;;;;0.28;0.13;;;25.30;66.60;;;;;;5071526;28;20021;-42
2023/05/27 08:32:46;;;;;;;0.20;0.20;;;25.20;67.70;;;;;;5070625;28;20097;-44
2023/05/27 08:35:11;;;;;;;0.10;0.10;;;24.80;66.00;;;;;;5070432;28;20028;-48
2023/05/27 08:37:38;;;;;;;0.10;0.10;;;24.80;70.20;;;;;;5071588;28;20024;-49
2023/05/27 08:40:07;;;;;;;0.20;0.20;;;24.50;66.90;;;;;;5071620;28;20025;-43
2023/05/27 08:42:33;;;;;;;;;;;24.20;67.30;;;;;;5071729;28;20074;-51
2023/05/27 08:44:59;;;;;;;0.10;0.10;;;24.80;70.30;;;;;;5078814;28;19943;-51
2023/05/27 08:47:28;;;;;;;0.10;0.10;;;25.30;70.20;;;;;;5091470;28;20036;-44
2023/05/27 08:49:53;;;;;;;0.10;0.10;;;25.40;69.90;;;;;;5091956;28;20024;-52
2023/05/27 08:52:20;;;;;;;0.10;0.10;;;25.60;65.80;;;;;;5091535;28;20501;-49
2023/05/27 08:54:47;;;;;;;0.75;0.40;;;25.50;65.10;;;;;;5091386;28;20419;-46
2023/05/27 08:57:15;;;;;;;0.10;0.10;;;25.00;65.10;;;;;;5091722;28;20440;-54
2023/05/27 08:59:41;;;;;;;0.40;0.25;;;25.40;68.80;;;;;;5091161;28;20471;-48
2023/05/27 09:02:11;;;;;;;0.20;0.20;;;26.00;68.70;;;;;;5091433;28;20437;-45
2023/05/27 09:04:39;;;;;;;0.30;0.20;;;25.80;65.40;;;;;;5091523;28;20429;-50
2023/05/27 09:07:05;;;;;;;0.20;0.20;;;26.30;68.20;;;;;;5091330;28;20028;-50
2023/05/27 09:09:31;;;;;;;0.43;0.32;;;26.80;65.80;;;;;;5091343;28;20027;-57
2023/05/27 09:12:01;;;;;;;0.10;0.10;;;27.00;61.50;;;;;;5091139;28;20020;-50
2023/05/27 09:14:29;;;;;;;0.17;0.17;;;26.90;63.70;;;;;;5091399;28;20375;-42
2023/05/27 09:16:55;;;;;;;0.25;0.10;;;26.70;60.60;;;;;;5090922;28;20024;-49
2023/05/27 09:19:21;;;;;;;0.20;0.20;;;26.10;60.00;;;;;;5091126;28;20031;-52
2023/05/27 09:21:47;;;;;;;0.30;0.30;;;25.70;63.00;;;;;;5090975;28;20046;-48
2023/05/27 09:24:12;;;;;;;0.10;0.10;;;25.50;63.90;;;;;;5091090;28;20466;-55
2023/05/27 09:26:38;;;;;;;0.10;0.10;;;25.10;61.80;;;;;;5091005;28;20078;-50
2023/05/27 09:29:10;;;;;;;0.10;0.10;;;25.60;69.60;;;;;;5091055;28;20108;-45
2023/05/27 09:31:42;;;;;;;0.10;0.10;;;26.30;67.90;;;;;;5091009;28;20127;-48
2023/05/27 09:34:15;;;;;;;0.10;0.10;;;26.30;63.80;;;;;;5090828;28;20020;-47
2023/05/27 09:36:45;;;;;;;0.15;0.15;;;26.80;64.60;;;;;;5089610;28;20061;-52
2023/05/27 09:39:15;;;;;;;0.10;0.10;;;26.90;61.90;;;;;;5079566;28;20518;-50
2023/05/27 09:41:42;;;;;;;0.30;0.20;;;26.30;59.40;;;;;;5056439;28;20060;-51
2023/05/27 09:44:08;;;;;;;0.10;0.10;;;26.50;63.20;;;;;;5070796;28;20094;-50
2023/05/27 09:46:34;;;;;;;0.10;0.10;;;27.20;66.60;;;;;;5070586;28;20478;-51
2023/05/27 09:49:02;;;;;;;0.20;0.20;;;27.70;60.20;;;;;;5070603;28;20087;-54
2023/05/27 09:51:27;;;;;;;0.10;0.10;;;28.00;59.90;;;;;;5070458;28;20124;-48
2023/05/27 09:53:57;;;;;;;0.30;0.13;;;28.00;57.00;;;;;;5070237;28;20099;-53
2023/05/27 09:56:28;;;;;;;0.10;0.10;;;28.10;59.10;;;;;;5070394;28;20024;-46
2023/05/27 09:58:58;;;;;;;0.10;0.10;;;27.70;57.30;;;;;;5070083;28;20021;-46
2023/05/27 10:01:28;;;;;;;0.17;0.17;;;27.60;60.50;;;;;;5068998;28;20033;-54
2023/05/27 10:03:56;;;;;;;1.70;0.20;;;27.90;62.40;;;;;;5057693;28;20043;-60
2023/05/27 10:06:24;;;;;;;0.10;0.10;;;28.40;60.90;;;;;;5070275;28;20028;-44
2023/05/27 10:08:52;;;;;;;0.10;0.10;;;28.90;58.90;;;;;;5069638;28;20541;-48
2023/05/27 10:11:19;;;;;;;0.00;0.00;;;29.00;58.80;;;;;;5070416;28;20017;-53
2023/05/27 10:13:45;;;;;;;0.10;0.10;;;28.90;58.40;;;;;;5070086;28;20028;-41
2023/05/27 10:16:21;;;;;;;0.20;0.10;;;28.70;60.10;;;;;;5070320;28;20028;-45
2023/05/27 10:18:52;;;;;;;0.17;0.17;;;28.80;60.10;;;;;;5070114;28;20024;-47
2023/05/27 10:21:22;;;;;;;0.20;0.17;;;28.80;60.50;;;;;;5069956;28;20037;-51
2023/05/27 10:23:57;;;;;;;0.15;0.15;;;29.00;56.80;;;;;;5070053;28;20036;-53
2023/05/27 10:26:43;;;;;;;0.10;0.10;;;28.70;55.80;;;;;;5070178;28;20117;-46
2023/05/27 10:29:09;;;;;;;0.10;0.10;;;28.40;53.80;;;;;;5069787;28;20482;-48
2023/05/27 10:31:39;;;;;;;0.10;0.10;;;27.80;54.60;;;;;;5070287;28;20032;-42
2023/05/27 10:34:08;;;;;;;0.20;0.10;;;27.60;55.80;;;;;;5070060;28;20021;-42
2023/05/27 10:36:33;;;;;;;0.35;0.10;;;28.10;61.50;;;;;;5070160;28;20041;-46
2023/05/27 10:39:04;;;;;;;0.10;0.10;;;28.30;60.40;;;;;;5068872;28;20158;-43
2023/05/27 10:41:42;;;;;;;0.43;0.20;;;28.70;58.90;;;;;;5068458;28;20044;-44
2023/05/27 10:44:08;;;;;;;0.00;0.00;;;28.90;52.70;;;;;;5068812;28;20410;-42
2023/05/27 10:46:43;;;;;;;0.10;0.10;;;28.30;60.20;;;;;;5069996;28;20590;-43
2023/05/27 10:49:25;;;;;;;0.10;0.10;;;27.80;54.70;;;;;;5070330;28;20368;-43
2023/05/27 10:51:51;;;;;;;0.65;0.35;;;28.00;61.00;;;;;;5073146;28;20461;-48
2023/05/27 10:54:17;;;;;;;0.35;0.28;;;27.90;59.00;;;;;;5073455;28;20093;-46
2023/05/27 10:56:50;;;;;;;0.03;0.00;;;27.80;54.10;;;;;;5072924;28;20103;-46
2023/05/27 10:59:24;;;;;;;0.13;0.13;;;27.90;59.40;;;;;;5073489;28;20064;-44
2023/05/27 11:01:53;;;;;;;0.30;0.15;;;28.20;61.50;;;;;;5072679;28;20048;-44
2023/05/27 11:04:19;;;;;;;;;;;28.50;58.50;;;;;;5073826;28;20024;-54
2023/05/27 11:06:59;;;;;;;0.00;0.00;;;28.80;59.80;;;;;;5073154;28;20003;-43
2023/05/27 11:09:25;;;;;;;0.13;0.13;;;28.70;56.50;;;;;;5063883;28;20036;-50
2023/05/27 11:11:51;;;;;;;0.10;0.10;;;28.10;56.70;;;;;;5073079;28;20029;-43
2023/05/27 11:14:19;;;;;;;0.10;0.10;;;27.90;55.80;;;;;;5073338;28;20492;-45
2023/05/27 11:16:53;;;;;;;0.13;0.13;;;28.20;56.90;;;;;;5073233;28;20021;-46
2023/05/27 11:19:20;;;;;;;0.10;0.10;;;28.50;53.40;;;;;;5071031;28;20016;-46
2023/05/27 11:21:47;;;;;;;0.10;0.10;;;28.00;54.90;;;;;;5071377;28;20047;-45
2023/05/27 11:24:21;;;;;;;0.10;0.10;;;26.80;52.90;;;;;;5073168;28;20035;-51
2023/05/27 11:26:47;;;;;;;0.20;0.20;;;27.20;58.50;;;;;;5066584;28;20029;-53
2023/05/27 11:29:16;;;;;;;0.10;0.10;;;27.60;58.70;;;;;;5072840;28;20027;-44
2023/05/27 11:31:47;;;;;;;0.30;0.30;;;27.80;55.30;;;;;;5072866;28;20025;-52
2023/05/27 11:34:14;;;;;;;0.10;0.10;;;27.70;57.60;;;;;;5072534;28;21471;-47
2023/05/27 11:36:40;;;;;;;0.10;0.10;;;27.30;52.90;;;;;;5072959;28;20021;-52
2023/05/27 11:39:09;;;;;;;0.10;0.10;;;27.00;56.60;;;;;;5072551;28;20111;-42
2023/05/27 11:41:35;;;;;;;0.20;0.20;;;26.60;56.10;;;;;;5072364;28;20107;-41
2023/05/27 11:44:04;;;;;;;0.13;0.13;;;27.00;58.00;;;;;;5072252;28;20131;-45
2023/05/27 11:46:49;;;;;;;0.00;0.00;;;26.90;56.60;;;;;;5072430;28;20040;-45
2023/05/27 11:49:17;;;;;;;0.10;0.10;;;26.90;56.60;;;;;;5072449;28;20017;-45
2023/05/27 11:51:45;;;;;;;0.17;0.17;;;26.80;55.50;;;;;;5072573;28;20016;-50
2023/05/27 11:54:23;;;;;;;0.20;0.20;;;26.80;59.10;;;;;;5070922;28;20364;-46
2023/05/27 11:56:50;;;;;;;0.13;0.13;;;26.80;55.40;;;;;;5071958;28;20335;-45
2023/05/27 11:59:16;;;;;;;0.15;0.08;;;26.80;59.40;;;;;;5072235;28;20059;-47
2023/05/27 12:01:42;;;;;;;3.00;0.40;;;27.00;58.60;;;;;;5072193;28;20052;-46
2023/05/27 12:04:08;;;;;;;0.10;0.10;;;26.90;54.90;;;;;;5071858;28;20416;-47
2023/05/27 12:06:35;;;;;;;0.10;0.10;;;26.90;58.00;;;;;;5072279;28;20067;-44
2023/05/27 12:09:02;;;;;;;0.10;0.10;;;26.60;54.20;;;;;;5071979;28;20475;-50
2023/05/27 12:11:28;;;;;;;0.10;0.10;;;26.10;57.10;;;;;;5072139;28;20029;-43
2023/05/27 12:13:54;;;;;;;0.10;0.10;;;26.00;55.00;;;;;;5070594;28;20098;-43
2023/05/27 12:16:19;;;;;;;0.15;0.10;;;26.00;55.30;;;;;;5072065;28;20063;-44
2023/05/27 12:18:45;;;;;;;0.10;0.10;;;25.60;54.80;;;;;;5071729;28;20422;-45
2023/05/27 12:21:11;;;;;;;0.20;0.20;;;25.70;57.80;;;;;;5071819;28;20031;-41
2023/05/27 12:23:37;;;;;;;0.10;0.10;;;25.50;55.00;;;;;;5071497;28;20455;-42
2023/05/27 12:26:02;;;;;;;0.10;0.10;;;24.50;54.00;;;;;;5071693;28;20073;-42
2023/05/27 12:28:28;;;;;;;0.08;0.08;;;24.50;56.70;;;;;;5071610;28;20399;-50
2023/05/27 12:30:53;;;;;;;0.57;0.25;;;24.80;59.20;;;;;;5071515;28;20195;-42
2023/05/27 12:33:19;;;;;;;0.57;0.22;;;24.80;58.30;;;;;;5071586;28;20066;-44
2023/05/27 12:35:45;;;;;;;0.00;0.00;;;24.80;58.30;;;;;;5071591;28;20103;-52
2023/05/27 12:38:10;;;;;;;0.10;0.10;;;24.80;56.80;;;;;;5071226;28;20017;-50
2023/05/27 12:40:36;;;;;;;0.20;0.10;;;24.20;57.90;;;;;;5070711;28;20059;-48
2023/05/27 12:43:03;;;;;;;0.28;0.17;;;24.40;62.60;;;;;;5078533;28;20585;-50
2023/05/27 12:45:29;;;;;;;0.10;0.10;;;24.60;61.40;;;;;;5091646;28;20147;-43